createdAt,value
2022-11-30T00:00:38.127Z,101430.02
2022-11-30T00:03:25.564Z,101425.72
2022-11-30T00:05:58.436Z,101431.83
2022-11-30T00:08:31.488Z,101432.64
2022-11-30T00:11:08.636Z,101422.12
2022-11-30T00:13:42.195Z,101420.34
2022-11-30T00:16:15.496Z,101421.41
2022-11-30T00:18:48.589Z,101430.98
2022-11-30T00:21:21.753Z,101427.64
2022-11-30T00:23:54.696Z,101425.86
2022-11-30T00:26:27.677Z,101420.59
2022-11-30T00:29:00.867Z,101417.82
2022-11-30T00:31:33.751Z,101412.70
2022-11-30T00:34:06.602Z,101419.63
2022-11-30T00:36:39.454Z,101420.59
2022-11-30T00:39:12.627Z,101413.78
2022-11-30T00:41:45.539Z,101415.33
2022-11-30T00:44:18.379Z,101418.67
2022-11-30T00:46:51.449Z,101422.12
2022-11-30T00:49:24.290Z,101410.07
2022-11-30T00:51:57.190Z,101407.55
2022-11-30T00:54:30.638Z,101402.44
2022-11-30T00:57:03.675Z,101399.91
2022-11-30T00:59:36.577Z,101386.57
2022-11-30T01:02:10.165Z,101400.88
2022-11-30T01:04:45.099Z,101407.95
2022-11-30T01:07:21.229Z,101406.28
2022-11-30T01:09:54.309Z,101404.47
2022-11-30T01:12:27.183Z,101401.98
2022-11-30T01:15:00.177Z,101403.77
2022-11-30T01:17:33.157Z,101401.14
2022-11-30T01:20:06.647Z,101402.10
2022-11-30T01:22:39.628Z,101392.54
2022-11-30T01:25:12.983Z,101389.09
2022-11-30T01:27:49.777Z,101388.39
2022-11-30T01:30:22.905Z,101383.13
2022-11-30T01:32:55.789Z,101385.75
2022-11-30T01:35:28.765Z,101380.49
2022-11-30T01:38:01.612Z,101380.49
2022-11-30T01:40:34.721Z,101378.94
2022-11-30T01:43:13.498Z,101381.72
2022-11-30T01:45:46.832Z,101368.94
2022-11-30T01:48:19.931Z,101374.19
2022-11-30T01:50:52.969Z,101372.67
2022-11-30T01:53:27.116Z,101371.11
2022-11-30T01:56:00.483Z,101366.95
2022-11-30T01:58:35.180Z,101369.59
2022-11-30T02:01:08.348Z,101372.22
2022-11-30T02:03:49.110Z,101374.25
2022-11-30T02:06:23.343Z,101367.58
2022-11-30T02:08:57.750Z,101364.95
2022-11-30T02:11:31.316Z,101366.77
2022-11-30T02:14:20.131Z,101372.84
2022-11-30T02:17:03.544Z,101376.44
2022-11-30T02:20:00.324Z,101385.28
2022-11-30T02:22:50.589Z,101384.58
2022-11-30T02:25:35.870Z,101384.83
2022-11-30T02:28:25.115Z,101392.02
2022-11-30T02:31:01.515Z,101391.20
2022-11-30T02:33:36.110Z,101395.49
2022-11-30T02:36:11.161Z,101396.31
2022-11-30T02:38:44.512Z,101402.42
2022-11-30T02:41:17.497Z,101406.83
2022-11-30T02:43:50.596Z,101402.53
2022-11-30T02:46:31.075Z,101398.94
2022-11-30T02:49:11.546Z,101396.31
2022-11-30T02:51:46.801Z,101394.39
2022-11-30T02:54:21.015Z,101385.68
2022-11-30T02:56:53.946Z,101384.02
2022-11-30T02:59:26.959Z,101377.20
2022-11-30T03:02:01.872Z,101402.53
2022-11-30T03:04:34.948Z,101419.98
2022-11-30T03:07:07.742Z,101422.61
2022-11-30T03:09:40.734Z,101429.67
2022-11-30T03:12:13.625Z,101415.56
2022-11-30T03:14:46.573Z,101409.34
2022-11-30T03:17:21.388Z,101400.61
2022-11-30T03:19:54.436Z,101406.72
2022-11-30T03:22:27.262Z,101407.42
2022-11-30T03:25:00.264Z,101420.58
2022-11-30T03:27:33.336Z,101417.09
2022-11-30T03:30:08.089Z,101416.28
2022-11-30T03:32:41.114Z,101413.64
2022-11-30T03:35:14.063Z,101413.76
2022-11-30T03:37:48.459Z,101412.23
2022-11-30T03:40:21.565Z,101406.83
2022-11-30T03:42:54.427Z,101401.57
2022-11-30T03:45:27.537Z,101399.79
2022-11-30T03:48:00.353Z,101400.75
2022-11-30T03:50:33.280Z,101398.12
2022-11-30T03:53:06.316Z,101384.98
2022-11-30T03:55:39.414Z,101390.34
2022-11-30T03:58:12.392Z,101393.94
2022-11-30T04:00:45.615Z,101391.45
2022-11-30T04:03:21.653Z,101400.16
2022-11-30T04:05:54.436Z,101395.74
2022-11-30T04:08:27.602Z,101390.73
2022-11-30T04:11:02.384Z,101389.89
2022-11-30T04:13:36.870Z,101381.19
2022-11-30T04:16:10.368Z,101387.27
2022-11-30T04:18:43.392Z,101400.30
2022-11-30T04:21:16.258Z,101407.33
2022-11-30T04:23:49.408Z,101418.70
2022-11-30T04:26:25.712Z,101425.73
2022-11-30T04:29:01.198Z,101424.07
2022-11-30T04:31:37.281Z,101424.92
2022-11-30T04:34:11.433Z,101424.07
2022-11-30T04:36:44.582Z,101426.70
2022-11-30T04:39:18.165Z,101420.88
2022-11-30T04:41:51.434Z,101413.80
2022-11-30T04:44:24.518Z,101419.31
2022-11-30T04:46:57.418Z,101429.12
2022-11-30T04:49:30.339Z,101429.97
2022-11-30T04:52:03.250Z,101425.53
2022-11-30T04:54:36.432Z,101426.48
2022-11-30T04:57:09.544Z,101428.16
2022-11-30T04:59:42.889Z,101431.75
2022-11-30T05:02:15.822Z,101435.22
2022-11-30T05:04:49.238Z,101436.05
2022-11-30T05:07:22.746Z,101437.00
2022-11-30T05:09:56.176Z,101438.10
2022-11-30T05:12:29.185Z,101434.38
2022-11-30T05:15:02.174Z,101432.59
2022-11-30T05:17:35.258Z,101451.81
2022-11-30T05:20:23.617Z,101439.77
2022-11-30T05:22:59.584Z,101439.88
2022-11-30T05:25:37.672Z,101432.00
2022-11-30T05:28:11.087Z,101429.61
2022-11-30T05:30:57.378Z,101423.53
2022-11-30T05:33:30.689Z,101426.27
2022-11-30T05:36:10.206Z,101421.16
2022-11-30T05:38:43.790Z,101424.14
2022-11-30T05:41:16.831Z,101424.03
2022-11-30T05:43:49.965Z,101425.81
2022-11-30T05:46:24.052Z,101432.88
2022-11-30T05:48:57.702Z,101436.47
2022-11-30T05:51:34.161Z,101436.57
2022-11-30T05:54:07.508Z,101447.09
2022-11-30T05:56:40.676Z,101447.94
2022-11-30T05:59:14.560Z,101447.09
2022-11-30T06:01:47.708Z,101453.30
2022-11-30T06:04:22.062Z,101456.89
2022-11-30T06:06:55.986Z,101443.74
2022-11-30T06:09:34.918Z,101444.70
2022-11-30T06:12:10.799Z,101447.47
2022-11-30T06:14:48.151Z,101444.95
2022-11-30T06:17:38.194Z,101445.91
2022-11-30T06:20:12.682Z,101443.28
2022-11-30T06:22:49.858Z,101451.16
2022-11-30T06:25:22.857Z,101448.53
2022-11-30T06:27:55.974Z,101459.90
2022-11-30T06:30:39.486Z,101450.34
2022-11-30T06:33:12.577Z,101466.83
2022-11-30T06:35:49.108Z,101471.94
2022-11-30T06:38:26.372Z,101464.91
2022-11-30T06:41:22.206Z,101476.95
2022-11-30T06:43:55.130Z,101481.39
2022-11-30T06:46:28.435Z,101481.25
2022-11-30T06:49:02.827Z,101480.43
2022-11-30T06:51:41.358Z,101489.98
2022-11-30T06:59:29.744Z,101496.20
2022-11-30T07:02:22.310Z,101495.81
2022-11-30T07:05:34.797Z,101494.04
2022-11-30T07:08:18.603Z,101501.78
2022-11-30T07:10:51.942Z,101505.13
2022-11-30T07:13:25.424Z,101509.42
2022-11-30T07:16:27.213Z,101513.62
2022-11-30T07:19:23.613Z,101507.52
2022-11-30T07:21:59.497Z,101505.48
2022-11-30T07:25:35.134Z,101508.83
2022-11-30T07:28:40.305Z,101515.63
2022-11-30T07:32:04.936Z,101500.70
2022-11-30T07:38:51.834Z,101521.23
2022-11-30T07:45:05.170Z,101522.52
2022-11-30T07:47:51.976Z,101524.09
2022-11-30T07:50:24.984Z,101537.23
2022-11-30T07:57:01.049Z,101541.53
2022-11-30T07:59:34.141Z,101546.80
2022-11-30T08:02:07.591Z,101543.20
2022-11-30T08:04:43.665Z,101548.47
2022-11-30T08:07:22.591Z,101545.70
2022-11-30T08:09:55.686Z,101533.40
2022-11-30T08:12:45.198Z,101541.15
2022-11-30T08:15:46.002Z,101542.00
2022-11-30T08:18:19.349Z,101533.02
2022-11-30T08:21:00.143Z,101537.20
2022-11-30T08:23:34.971Z,101536.36
2022-11-30T08:26:11.866Z,101532.05
2022-11-30T08:28:46.619Z,101544.48
2022-11-30T08:31:22.876Z,101539.23
2022-11-30T08:33:58.680Z,101540.08
2022-11-30T08:36:33.049Z,101536.36
2022-11-30T08:39:07.965Z,101523.91
2022-11-30T08:41:43.622Z,101520.22
2022-11-30T08:44:55.242Z,101518.41
2022-11-30T08:47:59.060Z,101531.45
2022-11-30T08:50:32.072Z,101534.65
2022-11-30T08:53:06.615Z,101533.58
2022-11-30T08:55:39.762Z,101521.14
2022-11-30T08:58:13.049Z,101520.99
2022-11-30T09:00:46.062Z,101523.62
2022-11-30T09:03:18.977Z,101523.62
2022-11-30T09:05:51.899Z,101539.30
2022-11-30T09:08:24.922Z,101534.04
2022-11-30T09:10:57.862Z,101529.73
2022-11-30T09:13:30.786Z,101530.45
2022-11-30T09:16:03.988Z,101524.08
2022-11-30T09:18:37.793Z,101523.02
2022-11-30T09:21:14.693Z,101524.55
2022-11-30T09:23:48.903Z,101519.28
2022-11-30T09:26:25.483Z,101518.31
2022-11-30T09:28:58.584Z,101513.91
2022-11-30T09:31:31.588Z,101509.21
2022-11-30T09:34:04.569Z,101499.39
2022-11-30T09:36:37.572Z,101492.34
2022-11-30T09:39:13.423Z,101492.34
2022-11-30T09:42:06.115Z,101487.91
2022-11-30T09:44:41.777Z,101485.16
2022-11-30T09:47:35.846Z,101490.42
2022-11-30T09:50:16.295Z,101490.98
2022-11-30T09:52:54.893Z,101496.95
2022-11-30T09:55:35.448Z,101480.34
2022-11-30T09:58:13.537Z,101478.42
2022-11-30T10:00:46.337Z,101480.80
2022-11-30T10:03:21.096Z,101481.36
2022-11-30T10:06:02.054Z,101478.61
2022-11-30T10:08:51.021Z,101476.69
2022-11-30T10:11:48.081Z,101474.88
2022-11-30T10:14:46.032Z,101470.46
2022-11-30T10:17:31.416Z,101476.55
2022-11-30T10:20:26.129Z,101474.50
2022-11-30T10:23:18.836Z,101474.62
2022-11-30T10:25:54.229Z,101476.55
2022-11-30T10:28:46.974Z,101468.91
2022-11-30T10:31:22.790Z,101472.24
2022-11-30T10:34:16.942Z,101467.83
2022-11-30T10:36:54.709Z,101453.81
2022-11-30T10:39:33.754Z,101448.55
2022-11-30T10:42:12.475Z,101457.16
2022-11-30T10:52:39.473Z,101430.72
2022-11-30T10:55:23.054Z,101432.50
2022-11-30T10:58:08.331Z,101440.39
2022-11-30T11:00:41.558Z,101436.09
2022-11-30T11:03:28.780Z,101441.36
2022-11-30T11:06:16.365Z,101439.44
2022-11-30T11:08:55.002Z,101439.44
2022-11-30T11:11:35.976Z,101442.77
2022-11-30T11:14:34.885Z,101444.33
2022-11-30T11:17:26.489Z,101440.84
2022-11-30T11:19:59.350Z,101443.73
2022-11-30T11:22:35.790Z,101439.31
2022-11-30T11:25:22.260Z,101446.36
2022-11-30T11:28:02.844Z,101437.65
2022-11-30T11:30:38.726Z,101443.03
2022-11-30T11:33:23.374Z,101446.36
2022-11-30T11:36:14.704Z,101462.05
2022-11-30T11:38:53.478Z,101473.28
2022-11-30T11:41:31.552Z,101472.31
2022-11-30T11:44:07.894Z,101466.91
2022-11-30T11:46:56.702Z,101479.95
2022-11-30T11:49:32.738Z,101476.36
2022-11-30T11:52:08.791Z,101472.88
2022-11-30T11:58:54.261Z,101482.70
2022-11-30T12:01:46.919Z,101474.80
2022-11-30T12:04:42.385Z,101473.98
2022-11-30T12:11:26.789Z,101476.47
2022-11-30T12:14:01.939Z,101470.95
2022-11-30T12:16:45.927Z,101484.70
2022-11-30T12:19:23.430Z,101475.84
2022-11-30T12:22:11.430Z,101471.39
2022-11-30T12:25:17.113Z,101473.06
2022-11-30T12:27:59.409Z,101477.25
2022-11-30T12:30:41.744Z,101487.78
2022-11-30T12:33:43.376Z,101472.68
2022-11-30T12:36:50.075Z,101467.41
2022-11-30T12:39:34.963Z,101475.31
2022-11-30T12:42:18.880Z,101484.88
2022-11-30T12:45:05.867Z,101474.20
2022-11-30T12:47:55.336Z,101478.51
2022-11-30T12:50:46.404Z,101485.44
2022-11-30T12:53:28.574Z,101488.78
2022-11-30T12:56:13.830Z,101472.27
2022-11-30T12:58:56.309Z,101483.66
2022-11-30T13:01:51.864Z,101487.26
2022-11-30T13:04:30.844Z,101494.30
2022-11-30T13:07:09.639Z,101495.02
2022-11-30T13:09:49.300Z,101493.08
2022-11-30T13:12:26.970Z,101494.75
2022-11-30T13:15:05.030Z,101498.34
2022-11-30T13:17:39.868Z,101501.13
2022-11-30T13:20:27.544Z,101499.45
2022-11-30T13:23:07.265Z,101495.16
2022-11-30T13:28:59.615Z,101494.19
2022-11-30T13:31:40.701Z,101498.61
2022-11-30T13:34:28.511Z,101499.45
2022-11-30T13:37:10.269Z,101493.34
2022-11-30T13:39:57.501Z,101490.71
2022-11-30T13:42:51.772Z,101495.27
2022-11-30T13:45:36.631Z,101498.76
2022-11-30T13:48:35.777Z,101494.71
2022-11-30T13:51:09.627Z,101497.61
2022-11-30T13:53:44.470Z,101498.69
2022-11-30T13:56:43.378Z,101499.80
2022-11-30T14:00:33.739Z,101493.23
2022-11-30T14:07:11.751Z,101497.09
2022-11-30T14:10:30.471Z,101483.36
2022-11-30T14:13:24.873Z,101485.14
2022-11-30T14:16:03.560Z,101487.08
2022-11-30T14:18:45.563Z,101479.17
2022-11-30T14:21:27.756Z,101479.44
2022-11-30T14:24:04.861Z,101481.25
2022-11-30T14:26:45.365Z,101485.09
2022-11-30T14:29:22.141Z,101483.43
2022-11-30T14:31:59.849Z,101478.42
2022-11-30T14:34:37.634Z,101483.95
2022-11-30T14:37:23.177Z,101488.50
2022-11-30T14:40:03.215Z,101483.34
2022-11-30T14:42:37.894Z,101494.02
2022-11-30T14:45:20.676Z,101496.91
2022-11-30T14:48:06.358Z,101502.98
2022-11-30T14:50:44.098Z,101499.65
2022-11-30T14:53:31.237Z,101501.45
2022-11-30T14:56:15.095Z,101504.20
2022-11-30T14:58:54.824Z,101506.83
2022-11-30T15:01:30.319Z,101509.47
2022-11-30T15:04:13.668Z,101511.27
2022-11-30T15:06:54.073Z,101504.34
2022-11-30T15:09:31.898Z,101502.67
2022-11-30T15:12:40.087Z,101498.37
2022-11-30T15:15:51.124Z,101502.08
2022-11-30T15:18:27.717Z,101504.84
2022-11-30T15:21:46.512Z,101507.59
2022-11-30T15:24:41.968Z,101505.21
2022-11-30T15:27:23.006Z,101512.14
2022-11-30T15:30:06.858Z,101512.99
2022-11-30T15:32:40.158Z,101519.07
2022-11-30T15:35:23.369Z,101514.06
2022-11-30T15:37:58.551Z,101524.59
2022-11-30T15:40:36.592Z,101530.81
2022-11-30T15:43:23.777Z,101524.84
2022-11-30T15:45:58.549Z,101530.34
2022-11-30T15:48:39.479Z,101529.64
2022-11-30T15:51:53.205Z,101532.27
2022-11-30T15:54:53.348Z,101531.45
2022-11-30T15:57:29.001Z,101535.03
2022-11-30T16:00:20.536Z,101537.67
2022-11-30T16:03:08.369Z,101544.84
2022-11-30T16:05:42.050Z,101531.09
2022-11-30T16:08:21.182Z,101522.48
2022-11-30T16:10:55.303Z,101524.66
2022-11-30T16:13:33.049Z,101529.20
2022-11-30T16:16:15.557Z,101532.93
2022-11-30T16:18:50.225Z,101534.00
2022-11-30T16:22:05.833Z,101542.13
2022-11-30T16:24:46.594Z,101549.31
2022-11-30T16:27:40.729Z,101547.77
2022-11-30T16:30:21.917Z,101553.03
2022-11-30T16:32:55.032Z,101553.14
2022-11-30T16:35:31.847Z,101553.98
2022-11-30T16:38:06.844Z,101553.98
2022-11-30T16:40:40.769Z,101555.77
2022-11-30T16:43:16.058Z,101555.91
2022-11-30T16:45:51.244Z,101561.27
2022-11-30T16:48:24.268Z,101556.02
2022-11-30T16:50:57.988Z,101555.30
2022-11-30T16:53:31.020Z,101556.39
2022-11-30T16:56:04.583Z,101553.77
2022-11-30T16:58:37.327Z,101557.35
2022-11-30T17:01:18.026Z,101546.12
2022-11-30T17:03:53.534Z,101540.86
2022-11-30T17:06:26.967Z,101547.89
2022-11-30T17:08:59.767Z,101553.29
2022-11-30T17:11:36.532Z,101551.48
2022-11-30T17:14:11.739Z,101545.51
2022-11-30T17:16:48.768Z,101549.09
2022-11-30T17:19:24.885Z,101535.63
2022-11-30T17:21:58.099Z,101529.52
2022-11-30T17:24:31.835Z,101536.58
2022-11-30T17:27:05.925Z,101536.58
2022-11-30T17:29:43.390Z,101533.09
2022-11-30T17:32:18.217Z,101528.94
2022-11-30T17:34:53.584Z,101543.03
2022-11-30T17:37:32.528Z,101540.41
2022-11-30T17:40:08.588Z,101551.02
2022-11-30T17:42:41.893Z,101537.16
2022-11-30T17:45:16.786Z,101539.79
2022-11-30T17:47:49.743Z,101545.19
2022-11-30T17:50:22.646Z,101553.89
2022-11-30T17:52:59.885Z,101548.63
2022-11-30T17:55:33.017Z,101536.45
2022-11-30T17:58:07.861Z,101533.00
2022-11-30T18:00:40.843Z,101540.98
2022-11-30T18:03:13.841Z,101543.75
2022-11-30T18:05:47.072Z,101542.08
2022-11-30T18:08:38.030Z,101542.19
2022-11-30T18:11:55.095Z,101540.52
2022-11-30T18:14:47.670Z,101535.63
2022-11-30T18:18:02.907Z,101542.18
2022-11-30T18:20:50.793Z,101551.02
2022-11-30T18:23:42.588Z,101550.20
2022-11-30T18:26:38.627Z,101556.51
2022-11-30T18:29:22.468Z,101560.09
2022-11-30T18:32:01.013Z,101559.37
2022-11-30T18:34:34.136Z,101558.55
2022-11-30T18:37:07.384Z,101553.53
2022-11-30T18:39:40.552Z,101550.19
2022-11-30T18:42:14.352Z,101540.74
2022-11-30T18:44:47.593Z,101544.32
2022-11-30T18:47:22.695Z,101545.41
2022-11-30T18:49:55.567Z,101558.64
2022-11-30T18:52:29.043Z,101563.17
2022-11-30T18:55:01.940Z,101567.70
2022-11-30T18:57:37.867Z,101566.98
2022-11-30T19:00:12.845Z,101567.94
2022-11-30T19:02:45.872Z,101569.74
2022-11-30T19:05:32.995Z,101567.94
2022-11-30T19:08:09.169Z,101563.54
2022-11-30T19:10:42.935Z,101561.87
2022-11-30T19:13:15.838Z,101568.07
2022-11-30T19:15:48.625Z,101575.81
2022-11-30T19:18:23.297Z,101567.94
2022-11-30T19:20:56.933Z,101572.47
2022-11-30T19:23:30.016Z,101581.30
2022-11-30T19:26:05.637Z,101589.17
2022-11-30T19:28:40.301Z,101601.48
2022-11-30T19:31:15.096Z,101598.14
2022-11-30T19:33:49.666Z,101597.28
2022-11-30T19:36:24.481Z,101592.98
2022-11-30T19:38:59.136Z,101587.86
2022-11-30T19:41:32.172Z,101592.16
2022-11-30T19:44:05.295Z,101600.14
2022-11-30T19:46:38.559Z,101604.56
2022-11-30T19:49:13.193Z,101604.67
2022-11-30T19:51:46.184Z,101602.27
2022-11-30T19:54:19.053Z,101605.84
2022-11-30T19:56:52.011Z,101603.23
2022-11-30T19:59:25.022Z,101598.92
2022-11-30T20:02:00.330Z,101598.20
2022-11-30T20:04:33.273Z,101613.72
2022-11-30T20:07:06.255Z,101616.45
2022-11-30T20:09:39.260Z,101610.25
2022-11-30T20:12:13.620Z,101613.59
2022-11-30T20:14:48.752Z,101609.42
2022-11-30T20:17:22.184Z,101608.70
2022-11-30T20:19:55.228Z,101616.67
2022-11-30T20:22:28.429Z,101602.73
2022-11-30T20:25:01.206Z,101617.63
2022-11-30T20:27:35.918Z,101614.19
2022-11-30T20:30:11.391Z,101615.13
2022-11-30T20:32:44.369Z,101614.19
2022-11-30T20:35:17.540Z,101616.81
2022-11-30T20:37:52.467Z,101626.58
2022-11-30T20:40:25.624Z,101619.76
2022-11-30T20:42:58.627Z,101628.70
2022-11-30T20:45:32.127Z,101626.31
2022-11-30T20:48:05.124Z,101625.45
2022-11-30T20:50:38.287Z,101624.64
2022-11-30T20:53:11.257Z,101624.02
2022-11-30T20:55:44.206Z,101624.14
2022-11-30T20:58:17.318Z,101624.14
2022-11-30T21:00:53.657Z,101631.16
2022-11-30T21:03:28.377Z,101629.48
2022-11-30T21:06:05.099Z,101634.73
2022-11-30T21:08:39.662Z,101635.81
2022-11-30T21:11:15.411Z,101634.95
2022-11-30T21:13:50.734Z,101639.38
2022-11-30T21:16:28.042Z,101640.33
2022-11-30T21:19:02.670Z,101634.36
2022-11-30T21:21:37.313Z,101634.45
2022-11-30T21:24:12.991Z,101637.94
2022-11-30T21:26:46.582Z,101649.47
2022-11-30T21:29:20.605Z,101651.27
2022-11-30T21:31:53.769Z,101649.47
2022-11-30T21:34:26.983Z,101653.17
2022-11-30T21:36:59.933Z,101656.74
2022-11-30T21:39:35.147Z,101651.59
2022-11-30T21:42:08.195Z,101649.09
2022-11-30T21:44:41.153Z,101648.14
2022-11-30T21:47:15.128Z,101642.90
2022-11-30T21:49:48.202Z,101654.12
2022-11-30T21:52:21.540Z,101647.06
2022-11-30T21:54:54.626Z,101648.88
2022-11-30T21:57:27.359Z,101648.02
2022-11-30T22:00:00.234Z,101631.45
2022-11-30T22:02:34.024Z,101633.22
2022-11-30T22:05:09.248Z,101618.56
2022-11-30T22:07:42.636Z,101620.33
2022-11-30T22:10:16.081Z,101614.36
2022-11-30T22:12:49.171Z,101615.31
2022-11-30T22:15:22.161Z,101613.54
2022-11-30T22:17:56.268Z,101620.23
2022-11-30T22:20:29.236Z,101619.28
2022-11-30T22:23:02.297Z,101616.53
2022-11-30T22:25:35.264Z,101619.38
2022-11-30T22:28:09.714Z,101608.89
2022-11-30T22:30:43.483Z,101616.66
2022-11-30T22:33:21.435Z,101614.98
2022-11-30T22:35:55.274Z,101612.36
2022-11-30T22:38:28.447Z,101616.03
2022-11-30T22:41:09.826Z,101613.31
2022-11-30T22:43:43.023Z,101603.87
2022-11-30T22:46:21.704Z,101603.27
2022-11-30T22:48:56.329Z,101599.06
2022-11-30T22:51:31.331Z,101610.63
2022-11-30T22:54:04.745Z,101597.74
2022-11-30T22:56:40.834Z,101599.64
2022-11-30T22:59:16.864Z,101591.77
2022-11-30T23:01:52.619Z,101595.12
2022-11-30T23:04:26.147Z,101605.61
2022-11-30T23:06:59.390Z,101585.67
2022-11-30T23:09:36.850Z,101586.52
2022-11-30T23:12:10.447Z,101589.87
2022-11-30T23:14:45.460Z,101593.53
2022-11-30T23:17:18.495Z,101596.28
2022-11-30T23:19:51.243Z,101596.38
2022-11-30T23:22:24.213Z,101599.00
2022-11-30T23:24:58.396Z,101599.86
2022-11-30T23:27:31.517Z,101600.68
2022-11-30T23:30:05.034Z,101604.16
2022-11-30T23:32:38.114Z,101601.41
2022-11-30T23:35:11.921Z,101601.41
2022-11-30T23:37:44.979Z,101599.64
2022-11-30T23:40:18.527Z,101615.25
2022-11-30T23:42:52.542Z,101608.33
2022-11-30T23:45:25.734Z,101606.55
2022-11-30T23:47:58.683Z,101605.70
2022-11-30T23:50:31.649Z,101609.27
2022-11-30T23:53:04.542Z,101605.10
2022-11-30T23:55:37.818Z,101593.03
2022-11-30T23:58:11.182Z,101592.44
